createdAt,value
2023-05-23T00:02:00.368Z,100.00
2023-05-23T00:04:29.487Z,100.00
2023-05-23T00:06:56.560Z,100.00
2023-05-23T00:09:23.451Z,100.00
2023-05-23T00:11:50.071Z,100.00
2023-05-23T00:14:16.975Z,100.00
2023-05-23T00:16:45.198Z,100.00
2023-05-23T00:19:15.123Z,100.00
2023-05-23T00:21:49.625Z,100.00
2023-05-23T00:24:18.700Z,100.00
2023-05-23T00:26:45.897Z,100.00
2023-05-23T00:29:18.520Z,100.00
2023-05-23T00:31:46.790Z,100.00
2023-05-23T00:34:18.232Z,100.00
2023-05-23T00:36:47.585Z,100.00
2023-05-23T00:39:19.513Z,100.00
2023-05-23T00:41:51.354Z,100.00
2023-05-23T00:44:20.338Z,100.00
2023-05-23T00:46:51.490Z,100.00
2023-05-23T00:49:20.262Z,100.00
2023-05-23T00:51:49.478Z,100.00
2023-05-23T00:54:19.177Z,100.00
2023-05-23T00:56:46.893Z,100.00
2023-05-23T00:59:13.761Z,100.00
2023-05-23T01:01:41.247Z,100.00
2023-05-23T01:04:07.951Z,100.00
2023-05-23T01:06:34.517Z,100.00
2023-05-23T01:09:02.939Z,100.00
2023-05-23T01:11:47.190Z,100.00
2023-05-23T01:14:22.082Z,100.00
2023-05-23T01:16:55.923Z,100.00
2023-05-23T01:19:23.241Z,100.00
2023-05-23T01:21:54.997Z,100.00
2023-05-23T01:24:30.256Z,100.00
2023-05-23T01:27:14.928Z,100.00
2023-05-23T01:29:46.944Z,100.00
2023-05-23T01:32:16.246Z,100.00
2023-05-23T01:34:43.772Z,100.00
2023-05-23T01:37:11.327Z,100.00
2023-05-23T01:39:38.634Z,100.00
2023-05-23T01:42:06.002Z,100.00
2023-05-23T01:44:35.226Z,100.00
2023-05-23T01:47:04.188Z,100.00
2023-05-23T01:49:31.841Z,100.00
2023-05-23T01:52:00.620Z,100.00
2023-05-23T01:54:29.646Z,100.00
2023-05-23T01:57:00.640Z,100.00
2023-05-23T01:59:27.269Z,100.00
2023-05-23T02:01:55.306Z,100.00
2023-05-23T02:04:22.144Z,100.00
2023-05-23T02:06:48.662Z,100.00
2023-05-23T02:09:15.666Z,100.00
2023-05-23T02:11:42.195Z,100.00
2023-05-23T02:14:09.814Z,100.00
2023-05-23T02:16:36.730Z,100.00
2023-05-23T02:19:03.634Z,100.00
2023-05-23T02:21:34.267Z,100.00
2023-05-23T02:24:03.171Z,100.00
2023-05-23T02:26:30.109Z,100.00
2023-05-23T02:28:56.620Z,100.00
2023-05-23T02:31:24.533Z,100.00
2023-05-23T02:33:51.080Z,100.00
2023-05-23T02:36:17.720Z,100.00
2023-05-23T02:38:44.674Z,100.00
2023-05-23T02:41:11.336Z,100.00
2023-05-23T02:43:38.228Z,100.00
2023-05-23T02:46:05.567Z,100.00
2023-05-23T02:48:32.888Z,100.00
2023-05-23T02:50:59.599Z,100.00
2023-05-23T02:53:26.289Z,100.00
2023-05-23T02:55:53.348Z,100.00
2023-05-23T02:58:20.752Z,100.00
2023-05-23T03:00:47.470Z,100.00
2023-05-23T03:03:14.101Z,100.00
2023-05-23T03:05:40.844Z,100.00
2023-05-23T03:08:07.713Z,100.00
2023-05-23T03:10:34.408Z,100.00
2023-05-23T03:13:01.069Z,100.00
2023-05-23T03:15:30.450Z,100.00
2023-05-23T03:17:57.578Z,100.00
2023-05-23T03:20:24.274Z,100.00
2023-05-23T03:22:51.013Z,100.00
2023-05-23T03:25:17.748Z,100.00
2023-05-23T03:27:44.385Z,100.00
2023-05-23T03:30:12.408Z,100.00
2023-05-23T03:32:39.513Z,100.00
2023-05-23T03:35:06.631Z,100.00
2023-05-23T03:37:33.262Z,100.00
2023-05-23T03:40:00.219Z,100.00
2023-05-23T03:42:28.363Z,100.00
2023-05-23T03:44:55.012Z,100.00
2023-05-23T03:47:24.278Z,100.00
2023-05-23T03:49:51.218Z,100.00
2023-05-23T03:52:18.160Z,100.00
2023-05-23T03:54:45.553Z,100.00
2023-05-23T03:57:12.946Z,100.00
2023-05-23T03:59:39.856Z,100.00
2023-05-23T04:02:09.903Z,100.00
2023-05-23T04:04:36.778Z,100.00
2023-05-23T04:07:05.775Z,100.00
2023-05-23T04:09:32.757Z,100.00
2023-05-23T04:12:00.399Z,100.00
2023-05-23T04:14:27.998Z,100.00
2023-05-23T04:16:56.411Z,100.00
2023-05-23T04:19:23.185Z,100.00
2023-05-23T04:21:51.575Z,100.00
2023-05-23T04:24:18.399Z,100.00
2023-05-23T04:26:45.037Z,100.00
2023-05-23T04:29:12.659Z,100.00
2023-05-23T04:31:39.384Z,100.00
2023-05-23T04:34:07.920Z,100.00
2023-05-23T04:36:38.876Z,100.00
2023-05-23T04:39:06.114Z,100.00
2023-05-23T04:41:38.556Z,100.00
2023-05-23T04:44:14.922Z,100.00
2023-05-23T04:47:20.232Z,100.00
2023-05-23T04:50:04.412Z,100.00
2023-05-23T04:52:33.938Z,100.00
2023-05-23T04:55:01.302Z,100.00
2023-05-23T04:57:28.951Z,100.00
2023-05-23T04:59:57.105Z,100.00
2023-05-23T05:02:23.880Z,100.00
2023-05-23T05:04:51.254Z,100.00
2023-05-23T05:07:18.080Z,100.00
2023-05-23T05:09:45.300Z,100.00
2023-05-23T05:12:12.423Z,100.00
2023-05-23T05:14:40.006Z,100.00
2023-05-23T05:17:06.836Z,100.00
2023-05-23T05:19:42.153Z,100.00
2023-05-23T05:22:08.934Z,100.00
2023-05-23T05:24:40.316Z,100.00
2023-05-23T05:27:07.234Z,100.00
2023-05-23T05:29:34.449Z,100.00
2023-05-23T05:32:03.454Z,100.00
2023-05-23T05:34:30.047Z,100.00
2023-05-23T05:36:57.063Z,100.00
2023-05-23T05:39:26.361Z,100.00
2023-05-23T05:41:53.504Z,100.00
2023-05-23T05:44:20.142Z,100.00
2023-05-23T05:46:46.817Z,100.00
2023-05-23T05:49:13.724Z,100.00
2023-05-23T05:51:41.489Z,100.00
2023-05-23T05:54:08.057Z,100.00
2023-05-23T05:56:34.647Z,100.00
2023-05-23T05:59:01.248Z,100.00
2023-05-23T06:01:27.802Z,100.00
2023-05-23T06:03:54.496Z,100.00
2023-05-23T06:06:22.216Z,100.00
2023-05-23T06:08:48.939Z,100.00
2023-05-23T06:11:16.855Z,100.00
2023-05-23T06:13:43.412Z,100.00
2023-05-23T06:16:10.058Z,100.00
2023-05-23T06:18:36.858Z,100.00
2023-05-23T06:21:03.485Z,100.00
2023-05-23T06:23:30.249Z,100.00
2023-05-23T06:25:58.873Z,100.00
2023-05-23T06:28:25.729Z,100.00
2023-05-23T06:30:52.297Z,100.00
2023-05-23T06:33:18.833Z,100.00
2023-05-23T06:35:45.344Z,100.00
2023-05-23T06:38:11.936Z,100.00
2023-05-23T06:40:40.075Z,100.00
2023-05-23T06:43:06.885Z,100.00
2023-05-23T06:45:47.198Z,100.00
2023-05-23T06:48:14.030Z,100.00
2023-05-23T06:50:41.636Z,100.00
2023-05-23T06:53:10.078Z,100.00
2023-05-23T06:55:36.645Z,100.00
2023-05-23T06:58:04.791Z,100.00
2023-05-23T07:00:32.576Z,100.00
2023-05-23T07:03:09.550Z,100.00
2023-05-23T07:05:39.298Z,100.00
2023-05-23T07:08:10.793Z,100.00
2023-05-23T07:10:39.269Z,100.00
2023-05-23T07:13:17.340Z,100.00
2023-05-23T07:15:44.122Z,100.00
2023-05-23T07:18:13.852Z,100.00
2023-05-23T07:20:40.639Z,100.00
2023-05-23T07:23:16.752Z,100.00
2023-05-23T07:25:53.793Z,100.00
2023-05-23T07:28:28.873Z,100.00
2023-05-23T07:30:57.512Z,100.00
2023-05-23T07:33:24.937Z,100.00
2023-05-23T07:35:54.013Z,100.00
2023-05-23T07:38:20.992Z,100.00
2023-05-23T07:40:55.603Z,100.00
2023-05-23T07:43:29.656Z,100.00
2023-05-23T07:45:56.170Z,100.00
2023-05-23T07:48:22.739Z,100.00
2023-05-23T07:50:49.266Z,100.00
2023-05-23T07:53:16.656Z,100.00
2023-05-23T07:55:43.209Z,100.00
2023-05-23T07:58:10.250Z,100.00
2023-05-23T08:00:36.984Z,100.00
2023-05-23T08:03:11.933Z,100.00
2023-05-23T08:05:48.799Z,100.00
2023-05-23T08:08:15.605Z,100.00
2023-05-23T08:10:42.535Z,100.00
2023-05-23T08:13:16.409Z,100.00
2023-05-23T08:16:00.095Z,100.00
2023-05-23T08:18:31.011Z,100.00
2023-05-23T08:20:57.711Z,100.00
2023-05-23T08:23:24.311Z,100.00
2023-05-23T08:25:51.724Z,100.00
2023-05-23T08:28:18.458Z,100.00
2023-05-23T08:30:51.925Z,100.00
2023-05-23T08:33:18.499Z,100.00
2023-05-23T08:35:47.358Z,100.00
2023-05-23T08:38:15.733Z,100.00
2023-05-23T08:41:00.594Z,100.00
2023-05-23T08:43:29.391Z,100.00
2023-05-23T08:45:56.057Z,100.00
2023-05-23T08:48:26.207Z,100.00
2023-05-23T08:50:53.215Z,100.00
2023-05-23T08:53:27.340Z,100.00
2023-05-23T08:56:02.776Z,100.00
2023-05-23T08:58:40.738Z,100.00
2023-05-23T09:01:11.377Z,100.00
2023-05-23T09:03:38.538Z,100.00
2023-05-23T09:06:25.667Z,100.00
2023-05-23T09:08:53.306Z,100.00
2023-05-23T09:11:22.142Z,100.00
2023-05-23T09:13:49.872Z,100.00
2023-05-23T09:16:19.071Z,100.00
2023-05-23T09:18:50.194Z,100.00
2023-05-23T09:21:19.674Z,100.00
2023-05-23T09:23:55.010Z,100.00
2023-05-23T09:26:22.413Z,100.00
2023-05-23T09:28:48.969Z,100.00
2023-05-23T09:31:16.281Z,100.00
2023-05-23T09:33:50.327Z,100.00
2023-05-23T09:36:19.008Z,100.00
2023-05-23T09:38:47.564Z,100.00
2023-05-23T09:41:14.462Z,100.00
2023-05-23T09:43:50.377Z,100.00
2023-05-23T09:46:16.949Z,100.00
2023-05-23T09:48:52.083Z,100.00
2023-05-23T09:51:21.485Z,100.00
2023-05-23T09:53:48.263Z,100.00
2023-05-23T09:56:17.249Z,100.00
2023-05-23T09:58:48.258Z,100.00
2023-05-23T10:01:15.705Z,100.00
2023-05-23T10:03:50.452Z,100.00
2023-05-23T10:06:37.866Z,100.00
2023-05-23T10:09:05.883Z,100.00
2023-05-23T10:11:35.548Z,100.00
2023-05-23T10:14:07.380Z,100.00
2023-05-23T10:16:56.893Z,100.00
2023-05-23T10:19:48.754Z,100.00
2023-05-23T10:22:16.928Z,100.00
2023-05-23T10:24:45.490Z,100.00
2023-05-23T10:27:12.441Z,100.00
2023-05-23T10:29:39.588Z,100.00
2023-05-23T10:32:07.478Z,100.00
2023-05-23T10:35:06.180Z,100.00
2023-05-23T10:37:59.735Z,100.00
2023-05-23T10:40:43.397Z,100.00
2023-05-23T10:43:19.029Z,100.00
2023-05-23T10:45:47.044Z,100.00
2023-05-23T10:48:22.715Z,100.00
2023-05-23T10:51:08.760Z,100.00
2023-05-23T10:53:38.454Z,100.00
2023-05-23T10:56:10.236Z,99.57
2023-05-23T10:58:39.375Z,100.00
2023-05-23T11:01:08.635Z,99.23
2023-05-23T11:03:57.472Z,93.33
2023-05-23T11:06:42.866Z,100.00
2023-05-23T11:09:18.693Z,96.74
2023-05-23T11:11:54.388Z,94.50
2023-05-23T11:14:35.213Z,96.55
2023-05-23T11:17:16.686Z,100.00
2023-05-23T11:19:58.855Z,96.22
2023-05-23T11:22:30.565Z,100.00
2023-05-23T11:24:58.541Z,96.52
2023-05-23T11:27:36.299Z,96.71
2023-05-23T11:30:09.970Z,100.00
2023-05-23T11:32:37.162Z,100.00
2023-05-23T11:35:08.393Z,94.29
2023-05-23T11:37:35.412Z,92.70
2023-05-23T11:40:35.937Z,96.51
2023-05-23T11:43:05.187Z,97.88
2023-05-23T11:45:33.920Z,92.93
2023-05-23T11:48:06.608Z,95.59
2023-05-23T11:50:34.253Z,97.65
2023-05-23T11:53:00.982Z,97.06
2023-05-23T11:55:27.693Z,93.70
2023-05-23T11:57:56.479Z,89.69
2023-05-23T12:00:23.099Z,90.96
2023-05-23T12:02:49.746Z,88.58
2023-05-23T12:05:16.608Z,90.70
2023-05-23T12:07:47.041Z,96.11
2023-05-23T12:10:17.905Z,96.76
2023-05-23T12:12:45.038Z,97.38
2023-05-23T12:15:13.424Z,91.96
2023-05-23T12:17:46.695Z,90.43
2023-05-23T12:20:13.888Z,92.39
2023-05-23T12:22:42.044Z,91.30
2023-05-23T12:25:10.675Z,90.88
2023-05-23T12:27:40.242Z,92.61
2023-05-23T12:30:09.752Z,95.56
2023-05-23T12:32:41.099Z,91.69
2023-05-23T12:35:09.604Z,90.28
2023-05-23T12:37:40.315Z,92.77
2023-05-23T12:40:14.482Z,90.57
2023-05-23T12:42:51.409Z,88.90
2023-05-23T12:45:18.347Z,90.81
2023-05-23T12:47:44.943Z,95.11
2023-05-23T12:50:12.244Z,93.04
2023-05-23T12:52:40.098Z,93.53
2023-05-23T12:55:08.035Z,94.12
2023-05-23T12:57:35.564Z,91.87
2023-05-23T13:00:02.634Z,94.61
2023-05-23T13:02:29.255Z,91.73
2023-05-23T13:04:56.168Z,92.99
2023-05-23T13:07:23.024Z,93.97
2023-05-23T13:09:49.784Z,95.40
2023-05-23T13:12:16.754Z,94.66
2023-05-23T13:14:43.288Z,93.40
2023-05-23T13:17:09.941Z,93.51
2023-05-23T13:19:37.077Z,91.15
2023-05-23T13:22:04.796Z,88.27
2023-05-23T13:24:31.293Z,82.48
2023-05-23T13:26:57.845Z,81.21
2023-05-23T13:29:24.502Z,82.21
2023-05-23T13:31:51.172Z,79.51
2023-05-23T13:34:17.778Z,81.00
2023-05-23T13:36:44.294Z,79.93
2023-05-23T13:39:11.166Z,80.90
2023-05-23T13:41:37.757Z,80.32
2023-05-23T13:44:04.287Z,75.62
2023-05-23T13:46:30.845Z,77.08
2023-05-23T13:48:57.454Z,73.41
2023-05-23T13:51:24.050Z,73.74
2023-05-23T13:53:50.750Z,74.67
2023-05-23T13:56:17.379Z,74.77
2023-05-23T13:58:46.560Z,77.42
2023-05-23T14:01:13.375Z,77.23
2023-05-23T14:03:39.900Z,75.92
2023-05-23T14:06:06.592Z,78.50
2023-05-23T14:08:33.239Z,78.99
2023-05-23T14:10:59.714Z,76.89
2023-05-23T14:13:26.675Z,79.64
2023-05-23T14:15:54.120Z,78.98
2023-05-23T14:18:20.738Z,79.00
2023-05-23T14:20:47.311Z,79.04
2023-05-23T14:23:13.914Z,79.28
2023-05-23T14:25:40.679Z,79.51
2023-05-23T14:28:07.335Z,76.13
2023-05-23T14:30:35.303Z,76.31
2023-05-23T14:33:01.987Z,77.96
2023-05-23T14:35:29.608Z,74.64
2023-05-23T14:37:56.338Z,77.09
2023-05-23T14:40:23.036Z,78.38
2023-05-23T14:42:49.567Z,80.74
2023-05-23T14:45:18.663Z,75.59
2023-05-23T14:47:45.813Z,78.04
2023-05-23T14:50:12.385Z,78.61
2023-05-23T14:52:38.925Z,76.45
2023-05-23T14:55:06.025Z,74.65
2023-05-23T14:57:32.636Z,75.31
2023-05-23T14:59:59.133Z,76.81
2023-05-23T15:02:25.783Z,78.42
2023-05-23T15:04:52.432Z,77.50
2023-05-23T15:07:19.090Z,77.00
2023-05-23T15:09:47.660Z,78.17
2023-05-23T15:12:15.327Z,78.68
2023-05-23T15:14:43.536Z,77.47
2023-05-23T15:17:12.779Z,77.13
2023-05-23T15:19:42.795Z,77.62
2023-05-23T15:22:15.504Z,79.17
2023-05-23T15:24:49.077Z,79.99
2023-05-23T15:27:20.660Z,80.87
2023-05-23T15:29:48.305Z,75.38
2023-05-23T15:32:14.889Z,77.18
2023-05-23T15:34:41.539Z,74.20
2023-05-23T15:37:08.130Z,75.19
2023-05-23T15:39:35.183Z,74.17
2023-05-23T15:42:02.026Z,73.38
2023-05-23T15:44:28.630Z,76.46
2023-05-23T15:46:55.908Z,75.98
2023-05-23T15:49:26.625Z,71.48
2023-05-23T15:51:54.978Z,71.77
2023-05-23T15:54:21.666Z,74.98
2023-05-23T15:56:48.316Z,68.17
2023-05-23T15:59:14.874Z,69.33
2023-05-23T16:01:41.935Z,71.45
2023-05-23T16:04:08.738Z,67.55
2023-05-23T16:06:36.612Z,69.87
2023-05-23T16:09:03.564Z,71.16
2023-05-23T16:11:30.175Z,72.36
2023-05-23T16:13:56.719Z,74.31
2023-05-23T16:16:23.295Z,75.69
2023-05-23T16:18:50.162Z,74.11
2023-05-23T16:21:20.575Z,74.45
2023-05-23T16:23:50.013Z,76.09
2023-05-23T16:26:18.323Z,76.97
2023-05-23T16:28:45.441Z,77.10
2023-05-23T16:31:16.724Z,71.97
2023-05-23T16:33:44.562Z,71.11
2023-05-23T16:36:11.116Z,75.66
2023-05-23T16:38:37.622Z,75.13
2023-05-23T16:41:04.363Z,75.99
2023-05-23T16:43:31.102Z,74.27
2023-05-23T16:45:57.672Z,72.48
2023-05-23T16:48:24.336Z,74.98
2023-05-23T16:50:51.085Z,75.20
2023-05-23T16:53:17.654Z,78.04
2023-05-23T16:55:45.483Z,76.90
2023-05-23T16:58:15.027Z,72.13
2023-05-23T17:00:41.564Z,75.77
2023-05-23T17:03:08.400Z,76.57
2023-05-23T17:05:35.173Z,75.79
2023-05-23T17:08:02.394Z,75.93
2023-05-23T17:10:28.944Z,75.88
2023-05-23T17:12:55.636Z,75.64
2023-05-23T17:15:22.241Z,75.06
2023-05-23T17:17:49.174Z,74.03
2023-05-23T17:20:16.266Z,77.49
2023-05-23T17:22:42.806Z,74.87
2023-05-23T17:25:09.534Z,76.31
2023-05-23T17:27:36.064Z,78.15
2023-05-23T17:30:05.106Z,75.34
2023-05-23T17:32:31.896Z,76.17
2023-05-23T17:34:58.820Z,75.93
2023-05-23T17:37:26.420Z,76.54
2023-05-23T17:39:57.955Z,75.29
2023-05-23T17:42:24.927Z,75.40
2023-05-23T17:44:51.479Z,76.74
2023-05-23T17:47:18.471Z,75.88
2023-05-23T17:49:45.197Z,74.28
2023-05-23T17:52:14.907Z,74.14
2023-05-23T17:54:41.923Z,73.23
2023-05-23T17:57:08.435Z,75.36
2023-05-23T17:59:35.183Z,75.99
2023-05-23T18:02:01.715Z,73.71
2023-05-23T18:04:28.845Z,74.01
2023-05-23T18:06:55.366Z,75.25
2023-05-23T18:09:21.937Z,73.82
2023-05-23T18:11:48.470Z,69.29
2023-05-23T18:14:15.073Z,69.14
2023-05-23T18:16:42.034Z,70.87
2023-05-23T18:19:09.073Z,72.72
2023-05-23T18:21:35.720Z,73.15
2023-05-23T18:24:03.979Z,73.70
2023-05-23T18:26:31.035Z,75.61
2023-05-23T18:28:57.618Z,74.60
2023-05-23T18:31:24.225Z,73.64
2023-05-23T18:33:50.752Z,73.13
2023-05-23T18:36:17.652Z,74.11
2023-05-23T18:38:44.559Z,75.08
2023-05-23T18:41:14.606Z,75.12
2023-05-23T18:43:41.654Z,73.41
2023-05-23T18:46:08.488Z,76.00
2023-05-23T18:48:35.860Z,75.14
2023-05-23T18:51:03.131Z,76.06
2023-05-23T18:53:29.918Z,74.62
2023-05-23T18:55:56.483Z,75.97
2023-05-23T18:58:23.256Z,76.82
2023-05-23T19:00:50.007Z,78.88
2023-05-23T19:03:17.170Z,77.59
2023-05-23T19:05:43.970Z,78.80
2023-05-23T19:08:10.619Z,79.30
2023-05-23T19:10:37.165Z,79.17
2023-05-23T19:13:03.940Z,80.95
2023-05-23T19:15:30.970Z,79.86
2023-05-23T19:17:57.538Z,80.76
2023-05-23T19:20:24.216Z,82.68
2023-05-23T19:22:52.269Z,80.46
2023-05-23T19:25:20.580Z,82.13
2023-05-23T19:27:47.140Z,80.92
2023-05-23T19:30:14.004Z,81.64
2023-05-23T19:32:40.738Z,82.83
2023-05-23T19:35:08.331Z,83.17
2023-05-23T19:37:35.019Z,84.89
2023-05-23T19:40:01.834Z,85.05
2023-05-23T19:42:28.554Z,89.22
2023-05-23T19:44:55.092Z,87.49
2023-05-23T19:47:21.816Z,86.76
2023-05-23T19:49:48.467Z,87.23
2023-05-23T19:52:15.030Z,89.02
2023-05-23T19:54:41.897Z,88.34
2023-05-23T19:57:08.752Z,87.91
2023-05-23T19:59:35.364Z,90.21
2023-05-23T20:02:01.902Z,89.14
2023-05-23T20:04:28.491Z,90.27
2023-05-23T20:06:56.066Z,89.52
2023-05-23T20:09:23.214Z,91.69
2023-05-23T20:11:49.820Z,90.99
2023-05-23T20:14:16.464Z,91.87
2023-05-23T20:16:43.165Z,91.77
2023-05-23T20:19:10.008Z,91.38
2023-05-23T20:21:36.735Z,91.85
2023-05-23T20:24:03.396Z,92.18
2023-05-23T20:26:30.027Z,92.43
2023-05-23T20:28:56.583Z,92.09
2023-05-23T20:31:23.217Z,91.86
2023-05-23T20:33:49.899Z,92.43
2023-05-23T20:36:19.586Z,93.46
2023-05-23T20:38:47.615Z,94.35
2023-05-23T20:41:14.313Z,94.89
2023-05-23T20:43:41.081Z,94.64
2023-05-23T20:46:09.874Z,95.17
2023-05-23T20:48:36.817Z,96.85
2023-05-23T20:51:05.607Z,98.49
2023-05-23T20:53:32.368Z,98.42
2023-05-23T20:55:59.249Z,98.87
2023-05-23T20:58:25.878Z,98.53
2023-05-23T21:00:52.910Z,97.21
2023-05-23T21:03:19.789Z,98.33
2023-05-23T21:05:46.358Z,97.54
2023-05-23T21:08:13.035Z,98.66
2023-05-23T21:10:39.811Z,99.42
2023-05-23T21:13:06.834Z,99.80
2023-05-23T21:15:34.007Z,99.70
2023-05-23T21:18:00.702Z,100.00
2023-05-23T21:20:28.920Z,99.57
2023-05-23T21:22:55.661Z,100.00
2023-05-23T21:25:22.211Z,100.00
2023-05-23T21:27:48.804Z,100.00
2023-05-23T21:30:15.547Z,100.00
2023-05-23T21:32:43.584Z,100.00
2023-05-23T21:35:10.699Z,100.00
2023-05-23T21:37:37.366Z,100.00
2023-05-23T21:40:04.410Z,100.00
2023-05-23T21:42:31.054Z,100.00
2023-05-23T21:44:57.785Z,100.00
2023-05-23T21:47:25.131Z,100.00
2023-05-23T21:49:51.815Z,100.00
2023-05-23T21:52:18.648Z,100.00
2023-05-23T21:54:47.020Z,100.00
2023-05-23T21:57:13.652Z,100.00
2023-05-23T21:59:40.296Z,100.00
2023-05-23T22:02:07.049Z,100.00
2023-05-23T22:04:33.764Z,100.00
2023-05-23T22:07:00.395Z,100.00
2023-05-23T22:09:26.946Z,100.00
2023-05-23T22:11:53.697Z,100.00
2023-05-23T22:14:20.422Z,100.00
2023-05-23T22:16:47.226Z,100.00
2023-05-23T22:19:18.005Z,100.00
2023-05-23T22:21:44.619Z,100.00
2023-05-23T22:24:11.132Z,100.00
2023-05-23T22:26:39.136Z,100.00
2023-05-23T22:29:06.938Z,100.00
2023-05-23T22:31:33.544Z,100.00
2023-05-23T22:34:00.164Z,100.00
2023-05-23T22:36:26.859Z,100.00
2023-05-23T22:38:53.416Z,100.00
2023-05-23T22:41:19.960Z,100.00
2023-05-23T22:43:46.948Z,100.00
2023-05-23T22:46:13.621Z,100.00
2023-05-23T22:48:40.168Z,100.00
2023-05-23T22:51:07.940Z,100.00
2023-05-23T22:53:34.615Z,100.00
2023-05-23T22:56:01.301Z,100.00
2023-05-23T22:58:27.881Z,100.00
2023-05-23T23:00:54.419Z,100.00
2023-05-23T23:03:21.295Z,100.00
2023-05-23T23:05:47.921Z,100.00
2023-05-23T23:08:16.059Z,100.00
2023-05-23T23:10:43.908Z,100.00
2023-05-23T23:13:13.531Z,100.00
2023-05-23T23:15:40.617Z,100.00
2023-05-23T23:18:07.670Z,100.00
2023-05-23T23:20:34.503Z,100.00
2023-05-23T23:23:01.093Z,100.00
2023-05-23T23:25:27.692Z,100.00
2023-05-23T23:27:54.205Z,100.00
2023-05-23T23:30:21.073Z,100.00
2023-05-23T23:32:48.023Z,100.00
2023-05-23T23:35:14.613Z,100.00
2023-05-23T23:37:41.315Z,100.00
2023-05-23T23:40:08.770Z,100.00
2023-05-23T23:42:35.645Z,100.00
2023-05-23T23:45:02.241Z,100.00
2023-05-23T23:47:28.866Z,100.00
2023-05-23T23:49:55.698Z,100.00
2023-05-23T23:52:22.275Z,100.00
2023-05-23T23:54:48.777Z,100.00
2023-05-23T23:57:15.372Z,100.00
2023-05-23T23:59:42.066Z,100.00
